Time;durP1;ratioP1;P1;durP2;ratioP2;P2;SDS_P1;SDS_P2;PMS_P1;PMS_P2;Temp;Humidity;BMP_temperature;BMP_pressure;BME280_temperature;BME280_humidity;BME280_pressure;Samples;Min_cycle;Max_cycle;Signal;HPM_P1;HPM_P2
2022/12/17 13:06:07;;;;;;;73.78;35.95;;;;;;;1.17;80.81;102673.22;5071782;28;20075;-39
2022/12/17 13:08:32;;;;;;;80.70;37.38;;;;;;;1.15;80.48;102669.63;5070420;28;20072;-40
2022/12/17 13:11:28;;;;;;;83.93;37.97;;;;;;;1.21;80.60;102671.09;5072254;28;20041;-41
2022/12/17 13:14:00;;;;;;;75.95;35.47;;;;;;;1.19;80.33;102676.78;5074084;28;20028;-42
2022/12/17 13:16:43;;;;;;;75.55;36.17;;;;;;;1.22;80.40;102672.00;5069926;28;20488;-41
2022/12/17 13:19:35;;;;;;;72.45;35.78;;;;;;;1.22;80.32;102672.00;5065490;28;20040;-40
2022/12/17 13:22:11;;;;;;;68.57;34.25;;;;;;;1.17;80.26;102670.69;5069685;28;20054;-41
2022/12/17 13:24:37;;;;;;;79.80;37.33;;;;;;;1.09;79.77;102669.94;5072004;28;20024;-39
2022/12/17 13:27:03;;;;;;;78.22;35.90;;;;;;;1.04;79.95;102656.84;5070818;28;20028;-40
2022/12/17 13:29:36;;;;;;;82.47;37.70;;;;;;;1.04;80.14;102661.91;5071513;28;20040;-40
2022/12/17 13:32:05;;;;;;;76.85;36.78;;;;;;;0.98;79.95;102660.44;5067914;28;20025;-40
2022/12/17 13:34:40;;;;;;;82.22;38.20;;;;;;;1.04;80.20;102669.50;5067952;28;20074;-40
2022/12/17 13:37:17;;;;;;;79.95;38.33;;;;;;;1.04;80.35;102666.97;5070736;28;20490;-41
2022/12/17 13:39:49;;;;;;;76.53;36.55;;;;;;;0.96;79.60;102669.50;5070346;28;20036;-40
2022/12/17 13:42:44;;;;;;;75.20;36.38;;;;;;;1.06;80.23;102662.94;5071742;28;20084;-41
2022/12/17 13:45:15;;;;;;;78.70;36.50;;;;;;;0.98;80.15;102668.03;5067829;28;20515;-43
2022/12/17 13:47:41;;;;;;;78.05;36.15;;;;;;;0.92;79.80;102668.34;5069789;28;20031;-41
2022/12/17 13:50:25;;;;;;;78.95;36.17;;;;;;;0.99;80.35;102658.06;5068116;28;20037;-40
2022/12/17 13:52:51;;;;;;;76.00;35.38;;;;;;;0.92;80.21;102660.75;5069891;28;20028;-40
2022/12/17 13:55:25;;;;;;;75.60;36.72;;;;;;;0.95;79.96;102660.13;5069884;28;20074;-43
2022/12/17 13:57:52;;;;;;;74.43;35.03;;;;;;;0.91;80.11;102664.03;5068157;28;20020;-40
2022/12/17 14:00:24;;;;;;;79.20;36.92;;;;;;;0.94;80.09;102665.97;5063883;28;20025;-41
2022/12/17 14:02:51;;;;;;;72.57;35.42;;;;;;;0.88;79.84;102668.78;5067029;28;20025;-39
2022/12/17 14:05:31;;;;;;;80.72;36.75;;;;;;;0.93;80.17;102667.59;5071525;28;20028;-39
2022/12/17 14:07:59;;;;;;;77.22;36.65;;;;;;;0.89;80.11;102667.16;5062730;28;20076;-40
2022/12/17 14:10:26;;;;;;;76.20;37.08;;;;;;;0.88;80.08;102662.84;5059285;28;20040;-40
2022/12/17 14:13:03;;;;;;;78.95;35.70;;;;;;;0.93;80.22;102672.66;5059977;28;20652;-42
2022/12/17 14:15:30;;;;;;;76.15;34.50;;;;;;;0.91;79.91;102666.56;5062565;28;20488;-41
2022/12/17 14:17:57;;;;;;;75.32;35.10;;;;;;;0.88;79.89;102673.84;5063134;28;20085;-41
2022/12/17 14:20:27;;;;;;;75.75;35.10;;;;;;;0.87;79.76;102678.78;5074469;28;20032;-40
2022/12/17 14:22:58;;;;;;;79.90;36.10;;;;;;;0.83;79.99;102670.00;5063483;28;20033;-40
2022/12/17 14:25:26;;;;;;;77.25;35.88;;;;;;;0.82;79.94;102685.94;5067176;28;20068;-40
2022/12/17 14:27:56;;;;;;;76.93;36.03;;;;;;;0.79;79.80;102678.06;5060617;28;20043;-41
2022/12/17 14:30:29;;;;;;;81.75;35.47;;;;;;;0.80;80.05;102684.91;5063001;28;20035;-40
2022/12/17 14:32:57;;;;;;;74.28;34.20;;;;;;;0.73;79.63;102691.03;5068898;28;20039;-40
2022/12/17 14:35:24;;;;;;;82.82;37.22;;;;;;;0.74;79.88;102690.28;5063745;28;20435;-41
2022/12/17 14:37:50;;;;;;;80.03;36.40;;;;;;;0.72;79.64;102684.16;5067203;28;20481;-43
2022/12/17 14:40:15;;;;;;;83.13;36.80;;;;;;;0.71;79.58;102686.53;5064053;28;20033;-42
2022/12/17 14:42:41;;;;;;;78.97;36.42;;;;;;;0.75;79.82;102689.53;5066591;28;20059;-40
2022/12/17 14:45:23;;;;;;;79.80;36.78;;;;;;;0.80;80.05;102689.97;5064857;28;20120;-40
2022/12/17 14:48:00;;;;;;;80.90;35.88;;;;;;;0.82;79.92;102687.56;5067049;28;20036;-40
2022/12/17 14:50:27;;;;;;;77.25;35.25;;;;;;;0.75;79.55;102691.16;5064788;28;20111;-42
2022/12/17 14:52:55;;;;;;;79.90;36.08;;;;;;;0.81;79.48;102689.22;5066647;28;20032;-41
2022/12/17 14:55:20;;;;;;;81.60;35.50;;;;;;;0.72;79.47;102700.97;5065576;28;20515;-40
2022/12/17 14:57:45;;;;;;;78.05;35.50;;;;;;;0.76;79.14;102703.97;5070981;28;20035;-44
2022/12/17 15:00:12;;;;;;;83.85;36.47;;;;;;;0.66;79.09;102710.50;5066360;28;20111;-40
2022/12/17 15:02:37;;;;;;;81.57;36.03;;;;;;;0.64;79.29;102715.44;5067106;28;20489;-41
2022/12/17 15:05:03;;;;;;;78.00;36.65;;;;;;;0.58;79.49;102709.78;5062380;28;20032;-40
2022/12/17 15:07:30;;;;;;;82.75;36.63;;;;;;;0.58;79.44;102706.34;5063636;28;20160;-42
2022/12/17 15:09:59;;;;;;;79.05;36.15;;;;;;;0.59;79.70;102708.13;5068979;28;20477;-40
2022/12/17 15:12:24;;;;;;;88.75;37.92;;;;;;;0.56;79.72;102716.34;5064971;28;20659;-41
2022/12/17 15:14:49;;;;;;;80.80;37.38;;;;;;;0.59;79.64;102708.13;5066068;28;20468;-41
2022/12/17 15:17:16;;;;;;;84.35;37.28;;;;;;;0.58;79.92;102713.94;5065985;28;20028;-42
2022/12/17 15:19:41;;;;;;;81.57;38.20;;;;;;;0.58;80.00;102722.44;5067239;28;20458;-40
2022/12/17 15:22:16;;;;;;;86.38;38.28;;;;;;;0.62;80.47;102726.16;5070223;28;20396;-43
2022/12/17 15:24:44;;;;;;;81.85;36.47;;;;;;;0.58;80.01;102726.59;5068179;28;20048;-40
2022/12/17 15:27:15;;;;;;;87.93;37.85;;;;;;;0.60;80.26;102731.06;5064402;28;20114;-41
2022/12/17 15:29:41;;;;;;;81.90;36.22;;;;;;;0.58;79.93;102735.09;5068133;28;20138;-41
2022/12/17 15:32:07;;;;;;;82.30;35.95;;;;;;;0.56;79.75;102743.28;5062918;28;20492;-41
2022/12/17 15:34:32;;;;;;;80.78;35.35;;;;;;;0.51;80.07;102745.38;5060513;28;20035;-43
2022/12/17 15:36:57;;;;;;;74.60;33.92;;;;;;;0.53;80.60;102751.47;5062162;28;20020;-40
2022/12/17 15:39:23;;;;;;;79.80;35.42;;;;;;;0.56;80.01;102750.88;5069231;28;20028;-40
2022/12/17 15:44:32;;;;;;;79.05;34.97;;;;;;;0.50;80.04;102748.63;5060857;28;20055;-42
2022/12/17 15:46:57;;;;;;;75.38;34.67;;;;;;;0.52;80.13;102753.09;5068658;28;20032;-41
2022/12/17 15:49:22;;;;;;;73.43;33.33;;;;;;;0.47;80.02;102754.28;5069573;28;20055;-41
2022/12/17 15:51:48;;;;;;;74.82;34.17;;;;;;;0.49;80.09;102757.00;5065754;28;20064;-41
2022/12/17 15:54:13;;;;;;;75.55;32.88;;;;;;;0.44;79.81;102750.56;5065987;28;20033;-41
2022/12/17 15:56:38;;;;;;;74.93;33.28;;;;;;;0.40;80.07;102751.88;5063769;28;20070;-40
2022/12/17 15:59:04;;;;;;;76.88;33.08;;;;;;;0.41;80.08;102752.78;5062582;28;20112;-41
2022/12/17 16:01:29;;;;;;;77.85;33.95;;;;;;;0.42;80.09;102752.94;5067203;28;20031;-43
2022/12/17 16:03:54;;;;;;;77.18;33.40;;;;;;;0.46;80.65;102751.59;5067800;28;20039;-40
2022/12/17 16:06:20;;;;;;;80.53;33.90;;;;;;;0.47;80.24;102755.91;5062972;28;20054;-40
2022/12/17 16:08:45;;;;;;;84.22;35.40;;;;;;;0.46;79.96;102756.66;5067133;28;20123;-44
2022/12/17 16:11:12;;;;;;;83.63;35.22;;;;;;;0.43;80.26;102757.28;5068664;28;20056;-41
2022/12/17 16:13:38;;;;;;;76.05;33.25;;;;;;;0.39;79.87;102767.81;5062091;28;20395;-40
2022/12/17 16:16:05;;;;;;;76.55;33.25;;;;;;;0.36;79.94;102771.69;5065218;28;20021;-42
2022/12/17 16:18:31;;;;;;;78.15;32.35;;;;;;;0.34;79.77;102771.53;5064557;28;20408;-41
2022/12/17 16:21:02;;;;;;;80.00;33.67;;;;;;;0.32;80.13;102759.47;5062956;28;20160;-40
2022/12/17 16:23:27;;;;;;;84.60;35.75;;;;;;;0.26;79.95;102755.59;5070206;28;20039;-39
2022/12/17 16:25:58;;;;;;;81.95;34.38;;;;;;;0.30;80.17;102759.31;5064445;28;20483;-41
2022/12/17 16:28:24;;;;;;;81.20;35.05;;;;;;;0.20;80.20;102761.69;5066831;28;20111;-42
2022/12/17 16:31:08;;;;;;;83.28;34.30;;;;;;;0.30;80.30;102766.00;5063480;28;20044;-41
2022/12/17 16:33:35;;;;;;;80.63;35.17;;;;;;;0.23;79.71;102767.94;5065263;28;20024;-40
2022/12/17 16:36:01;;;;;;;82.15;35.47;;;;;;;0.18;79.73;102763.16;5063922;28;20030;-41
2022/12/17 16:38:27;;;;;;;79.60;32.10;;;;;;;0.16;79.43;102768.06;5061653;28;20477;-41
2022/12/17 16:40:57;;;;;;;80.97;33.33;;;;;;;0.21;80.07;102766.00;5062955;28;20036;-42
2022/12/17 16:43:24;;;;;;;83.20;33.60;;;;;;;0.12;79.63;102763.47;5065531;28;20488;-40
2022/12/17 16:45:50;;;;;;;81.80;34.78;;;;;;;0.11;79.89;102769.22;5068119;28;20052;-42
2022/12/17 16:48:18;;;;;;;94.95;38.85;;;;;;;0.10;79.96;102762.38;5069167;28;20025;-41
2022/12/17 16:50:44;;;;;;;90.40;37.47;;;;;;;0.10;79.44;102758.97;5059108;28;20085;-42
2022/12/17 16:53:11;;;;;;;85.43;34.60;;;;;;;0.08;79.62;102757.94;5067364;28;20043;-40
2022/12/17 16:55:47;;;;;;;83.82;34.10;;;;;;;0.11;79.83;102763.28;5056893;28;20024;-42
2022/12/17 16:58:15;;;;;;;87.03;34.97;;;;;;;0.06;79.59;102772.97;5059586;28;20028;-39
2022/12/17 17:00:40;;;;;;;81.47;34.78;;;;;;;0.02;79.58;102764.91;5050556;28;20040;-40
2022/12/17 17:03:06;;;;;;;87.85;36.25;;;;;;;-0.02;80.04;102774.69;5051973;28;20021;-40
2022/12/17 17:05:33;;;;;;;88.68;35.30;;;;;;;-0.01;80.22;102771.41;5060093;28;20064;-40
2022/12/17 17:07:59;;;;;;;83.63;35.08;;;;;;;-0.02;79.88;102761.16;5059124;28;20056;-40
2022/12/17 17:10:25;;;;;;;85.60;34.42;;;;;;;0.04;79.99;102763.41;5054555;28;20454;-42
2022/12/17 17:12:51;;;;;;;86.20;34.33;;;;;;;0.03;80.01;102772.63;5054735;28;20078;-40
2022/12/17 17:15:16;;;;;;;86.75;34.63;;;;;;;-0.01;80.33;102773.94;5055881;28;20342;-41
2022/12/17 17:17:42;;;;;;;84.70;35.97;;;;;;;0.03;80.34;102767.56;5053103;28;20028;-41
2022/12/17 17:20:08;;;;;;;89.57;35.33;;;;;;;0.03;80.38;102767.56;5057156;28;20546;-40
2022/12/17 17:22:33;;;;;;;87.38;37.10;;;;;;;0.07;80.37;102772.22;5063122;28;20044;-40
2022/12/17 17:24:58;;;;;;;87.55;36.55;;;;;;;0.02;80.51;102775.91;5075371;28;20482;-40
2022/12/17 17:27:24;;;;;;;86.13;36.03;;;;;;;0.03;80.63;102771.75;5077138;28;20077;-39
2022/12/17 17:29:49;;;;;;;84.70;34.42;;;;;;;0.04;80.21;102776.94;5068959;28;20097;-41
2022/12/17 17:32:14;;;;;;;85.20;34.25;;;;;;;0.03;80.44;102780.22;5067126;28;20036;-40
2022/12/17 17:34:40;;;;;;;81.28;34.08;;;;;;;0.04;80.39;102789.59;5074789;28;20634;-41
2022/12/17 17:37:05;;;;;;;85.70;34.75;;;;;;;0.01;80.31;102788.41;5054944;28;20028;-39
2022/12/17 17:39:32;;;;;;;84.25;33.40;;;;;;;-0.01;80.21;102794.19;5053384;28;20037;-40
2022/12/17 17:41:58;;;;;;;79.97;32.63;;;;;;;-0.03;80.18;102803.25;5056583;28;20120;-40
2022/12/17 17:44:23;;;;;;;85.72;34.75;;;;;;;-0.04;80.62;102796.41;5059510;28;21289;-40
2022/12/17 17:46:49;;;;;;;83.63;35.15;;;;;;;-0.02;80.22;102805.03;5055113;28;20155;-40
2022/12/17 17:49:14;;;;;;;85.30;34.28;;;;;;;-0.07;80.48;102795.19;5061053;28;20056;-39
2022/12/17 17:51:41;;;;;;;80.47;33.13;;;;;;;-0.05;80.64;102799.69;5058703;28;20052;-41
2022/12/17 17:54:07;;;;;;;79.80;32.75;;;;;;;-0.01;80.05;102795.81;5058059;28;20040;-40
2022/12/17 17:56:34;;;;;;;78.22;34.58;;;;;;;-0.02;80.09;102791.50;5059388;28;20032;-40
2022/12/17 17:59:02;;;;;;;76.72;32.92;;;;;;;-0.04;80.01;102787.94;5060377;28;20039;-40
2022/12/17 18:01:30;;;;;;;74.03;30.90;;;;;;;-0.02;79.72;102791.50;5061139;28;20476;-40
2022/12/17 18:03:59;;;;;;;75.18;32.15;;;;;;;-0.08;79.80;102801.91;5054466;28;20404;-40
2022/12/17 18:06:25;;;;;;;75.63;32.77;;;;;;;-0.15;79.43;102791.00;5059087;28;20090;-41
2022/12/17 18:08:51;;;;;;;75.65;30.52;;;;;;;-0.13;79.57;102800.53;5068630;28;20143;-41
2022/12/17 18:11:18;;;;;;;75.00;31.23;;;;;;;-0.18;79.35;102795.75;5076672;28;20038;-40
2022/12/17 18:13:56;;;;;;;67.88;28.90;;;;;;;-0.23;79.49;102802.88;5072094;28;20103;-41
2022/12/17 18:16:24;;;;;;;72.05;30.80;;;;;;;-0.27;79.51;102800.75;5067136;28;20558;-40
2022/12/17 18:18:52;;;;;;;73.50;29.35;;;;;;;-0.31;79.77;102807.13;5064512;28;20135;-40
2022/12/17 18:21:18;;;;;;;80.43;32.95;;;;;;;-0.29;80.08;102805.69;5070058;28;20158;-40
2022/12/17 18:23:44;;;;;;;70.13;30.58;;;;;;;-0.31;80.00;102806.22;5079751;28;20031;-41
2022/12/17 18:26:16;;;;;;;74.03;31.02;;;;;;;-0.27;79.98;102810.88;5061565;28;20064;-39
2022/12/17 18:28:43;;;;;;;74.25;32.53;;;;;;;-0.31;79.83;102811.28;5083292;28;20569;-40
2022/12/17 18:31:14;;;;;;;77.47;32.22;;;;;;;-0.35;79.89;102806.69;5068971;28;20033;-41
2022/12/17 18:33:43;;;;;;;75.93;31.92;;;;;;;-0.33;80.14;102811.13;5078001;28;20028;-42
2022/12/17 18:36:11;;;;;;;74.07;33.40;;;;;;;-0.27;80.04;102803.28;5068634;28;20082;-41
2022/12/17 18:38:37;;;;;;;81.38;33.42;;;;;;;-0.34;80.02;102800.88;5079855;28;20537;-41
2022/12/17 18:43:21;;;;;;;77.13;32.13;;;;;;;-0.30;80.30;102793.78;5077745;28;20040;-41
2022/12/17 18:43:53;;;;;;;76.00;31.75;;;;;;;-0.37;80.14;102796.38;5068070;28;20037;-40
2022/12/17 18:46:18;;;;;;;76.15;31.23;;;;;;;-0.34;80.06;102795.81;5063818;28;20036;-41
2022/12/17 18:48:44;;;;;;;78.72;31.27;;;;;;;-0.38;80.35;102793.72;5065361;28;20029;-41
2022/12/17 18:51:09;;;;;;;78.82;32.00;;;;;;;-0.37;79.96;102798.03;5063686;28;20040;-41
2022/12/17 18:53:34;;;;;;;75.45;31.25;;;;;;;-0.38;80.14;102794.59;5058287;28;20045;-42
2022/12/17 18:56:10;;;;;;;74.70;30.98;;;;;;;-0.35;80.35;102800.00;5061807;28;20119;-40
2022/12/17 18:58:36;;;;;;;74.95;30.80;;;;;;;-0.37;80.28;102798.03;5059534;28;20111;-41
2022/12/17 19:01:02;;;;;;;83.63;32.80;;;;;;;-0.37;80.25;102790.44;5062162;28;20221;-42
2022/12/17 19:03:27;;;;;;;72.90;31.02;;;;;;;-0.35;80.13;102799.09;5076308;28;20032;-41
2022/12/17 19:05:52;;;;;;;65.82;28.60;;;;;;;-0.40;80.06;102796.09;5067942;28;20461;-40
2022/12/17 19:08:18;;;;;;;65.90;28.35;;;;;;;-0.37;79.46;102805.59;5074907;28;20118;-40
2022/12/17 19:10:43;;;;;;;65.78;27.95;;;;;;;-0.43;79.30;102812.56;5063574;28;20052;-41
2022/12/17 19:13:08;;;;;;;62.42;27.65;;;;;;;-0.52;79.46;102801.53;5075379;28;20820;-40
2022/12/17 19:15:34;;;;;;;67.13;28.48;;;;;;;-0.59;79.54;102812.63;5075426;28;20477;-42
2022/12/17 19:18:00;;;;;;;63.95;28.20;;;;;;;-0.59;79.84;102818.56;5074329;28;20032;-41
2022/12/17 19:20:25;;;;;;;65.28;28.88;;;;;;;-0.61;79.16;102821.66;5067307;28;20082;-40
2022/12/17 19:22:50;;;;;;;61.00;27.70;;;;;;;-0.64;80.16;102829.81;5066729;28;20400;-40
2022/12/17 19:25:16;;;;;;;68.30;29.67;;;;;;;-0.64;80.06;102829.81;5068786;28;20114;-40
2022/12/17 19:27:41;;;;;;;68.47;30.42;;;;;;;-0.69;80.33;102830.97;5070605;28;20036;-41
2022/12/17 19:30:07;;;;;;;67.00;28.63;;;;;;;-0.66;80.30;102830.41;5068390;28;20043;-41
2022/12/17 19:32:33;;;;;;;69.55;29.45;;;;;;;-0.63;80.60;102830.72;5072817;28;20036;-40
2022/12/17 19:34:58;;;;;;;74.25;30.33;;;;;;;-0.63;80.55;102830.72;5072087;28;20054;-40
2022/12/17 19:37:24;;;;;;;72.32;30.70;;;;;;;-0.67;80.61;102833.66;5075951;28;20037;-41
2022/12/17 19:39:49;;;;;;;66.57;29.00;;;;;;;-0.68;80.52;102840.34;5078674;28;20135;-40
2022/12/17 19:42:23;;;;;;;67.97;28.73;;;;;;;-0.66;80.49;102843.94;5068894;28;20081;-40
2022/12/17 19:44:50;;;;;;;64.47;28.52;;;;;;;-0.75;80.02;102837.03;5079804;28;20485;-43
2022/12/17 19:47:15;;;;;;;62.58;28.58;;;;;;;-0.72;80.32;102840.78;5068693;28;20035;-40
2022/12/17 19:49:41;;;;;;;57.60;27.52;;;;;;;-0.77;80.39;102836.88;5078918;28;20036;-41
2022/12/17 19:52:06;;;;;;;59.70;26.25;;;;;;;-0.76;80.40;102833.59;5063732;28;20568;-39
2022/12/17 19:54:31;;;;;;;64.80;27.92;;;;;;;-0.74;80.39;102839.69;5086984;28;20399;-40
2022/12/17 19:56:56;;;;;;;60.83;27.90;;;;;;;-0.72;80.41;102837.34;5074310;28;20025;-40
2022/12/17 19:59:22;;;;;;;63.92;28.45;;;;;;;-0.71;80.47;102841.66;5070349;28;20033;-40
2022/12/17 20:01:47;;;;;;;67.95;30.25;;;;;;;-0.65;80.38;102845.72;5076352;28;20032;-40
2022/12/17 20:04:15;;;;;;;73.70;31.55;;;;;;;-0.61;80.84;102852.91;5072928;28;20080;-40
2022/12/17 20:06:41;;;;;;;68.20;29.77;;;;;;;-0.67;80.34;102849.69;5077773;28;20037;-40
2022/12/17 20:09:07;;;;;;;59.83;28.42;;;;;;;-0.65;79.97;102863.41;5077281;28;20051;-41
2022/12/17 20:11:33;;;;;;;56.53;26.55;;;;;;;-0.73;79.76;102865.84;5075574;28;20036;-41
2022/12/17 20:14:12;;;;;;;59.90;27.38;;;;;;;-0.72;80.14;102866.03;5074988;28;20032;-42
2022/12/17 20:16:54;;;;;;;61.55;26.48;;;;;;;-0.75;80.02;102863.19;5069898;28;20021;-40
2022/12/17 20:19:27;;;;;;;59.42;26.83;;;;;;;-0.76;79.88;102866.44;5071785;28;20035;-41
2022/12/17 20:21:53;;;;;;;57.65;26.42;;;;;;;-0.82;79.92;102870.84;5074383;28;20035;-40
2022/12/17 20:24:19;;;;;;;60.97;26.13;;;;;;;-0.83;79.79;102876.63;5067075;28;20032;-40
2022/12/17 20:26:47;;;;;;;55.95;25.60;;;;;;;-0.86;79.86;102882.25;5063969;28;20111;-42
2022/12/17 20:29:12;;;;;;;55.78;26.42;;;;;;;-0.86;79.88;102877.19;5072868;28;21044;-40
2022/12/17 20:31:38;;;;;;;56.60;26.33;;;;;;;-0.88;79.97;102865.16;5067173;28;20024;-40
2022/12/17 20:34:05;;;;;;;57.22;26.02;;;;;;;-0.88;80.06;102862.63;5068836;28;20039;-40
2022/12/17 20:36:31;;;;;;;59.38;26.35;;;;;;;-0.91;79.97;102867.34;5066316;28;20021;-40
2022/12/17 20:38:57;;;;;;;56.50;26.52;;;;;;;-0.85;79.91;102865.44;5074224;28;20520;-40
2022/12/17 20:41:29;;;;;;;57.58;27.77;;;;;;;-0.81;80.19;102870.09;5075569;28;20052;-40
2022/12/17 20:43:55;;;;;;;63.90;28.92;;;;;;;-0.85;79.98;102865.44;5078302;28;20032;-41
2022/12/17 20:46:22;;;;;;;62.22;27.48;;;;;;;-0.82;79.87;102860.75;5073024;28;20020;-41
2022/12/17 20:48:47;;;;;;;60.95;27.48;;;;;;;-0.89;79.49;102858.31;5079847;28;20020;-41
2022/12/17 20:51:19;;;;;;;58.22;25.88;;;;;;;-0.90;79.79;102859.06;5076314;28;20115;-41
2022/12/17 20:53:46;;;;;;;56.35;26.77;;;;;;;-0.98;79.83;102854.78;5070399;28;20032;-43
2022/12/17 20:56:17;;;;;;;56.17;26.85;;;;;;;-0.93;79.68;102848.59;5074295;28;20016;-41
2022/12/17 20:58:42;;;;;;;56.30;26.15;;;;;;;-0.95;79.52;102850.09;5069239;28;20071;-41
2022/12/17 21:01:18;;;;;;;54.60;25.95;;;;;;;-0.91;79.44;102843.00;5070071;28;20442;-41
2022/12/17 21:03:44;;;;;;;60.00;27.73;;;;;;;-0.86;79.12;102846.00;5063536;28;20063;-42
2022/12/17 21:06:14;;;;;;;61.33;27.63;;;;;;;-0.83;79.21;102843.81;5064110;28;20028;-40
2022/12/17 21:08:41;;;;;;;59.92;28.13;;;;;;;-0.86;79.31;102854.47;5067790;28;20413;-40
2022/12/17 21:11:07;;;;;;;56.10;26.73;;;;;;;-0.84;79.09;102855.53;5070561;28;20071;-41
2022/12/17 21:13:34;;;;;;;56.33;26.20;;;;;;;-0.86;79.03;102849.41;5064110;28;20435;-40
2022/12/17 21:16:02;;;;;;;56.70;27.38;;;;;;;-0.89;79.15;102859.19;5074598;28;20066;-42
2022/12/17 21:18:29;;;;;;;59.33;25.65;;;;;;;-0.89;79.21;102855.78;5077076;28;20054;-41
2022/12/17 21:20:56;;;;;;;56.63;26.63;;;;;;;-0.95;79.10;102858.56;5076285;28;20028;-40
2022/12/17 21:23:22;;;;;;;59.40;26.88;;;;;;;-0.99;79.23;102855.53;5068620;28;20036;-41
2022/12/17 21:25:47;;;;;;;56.95;27.30;;;;;;;-0.97;79.26;102861.63;5071793;28;20024;-41
2022/12/17 21:28:12;;;;;;;59.30;27.00;;;;;;;-1.03;79.20;102860.97;5068992;28;20069;-42
2022/12/17 21:30:39;;;;;;;56.10;26.30;;;;;;;-0.99;79.44;102861.47;5067909;28;20028;-43
2022/12/17 21:33:04;;;;;;;52.78;26.10;;;;;;;-1.04;79.35;102865.13;5066979;28;20503;-40
2022/12/17 21:35:29;;;;;;;51.92;26.02;;;;;;;-1.09;79.11;102874.78;5076938;28;20020;-40
2022/12/17 21:37:55;;;;;;;59.25;25.88;;;;;;;-1.12;79.21;102871.00;5075055;28;20024;-41
2022/12/17 21:40:20;;;;;;;58.65;26.70;;;;;;;-1.16;79.52;102866.34;5074533;28;20051;-40
2022/12/17 21:43:01;;;;;;;55.30;25.85;;;;;;;-1.09;79.40;102873.88;5075435;28;20032;-41
2022/12/17 21:45:26;;;;;;;55.05;26.08;;;;;;;-1.13;78.96;102867.59;5073787;28;20038;-40
2022/12/17 21:47:52;;;;;;;58.05;27.13;;;;;;;-1.14;79.06;102867.44;5076652;28;20274;-39
2022/12/17 21:50:17;;;;;;;57.22;26.77;;;;;;;-1.15;79.05;102868.19;5076742;28;20114;-40
2022/12/17 21:52:42;;;;;;;57.35;26.05;;;;;;;-1.16;78.95;102872.31;5077237;28;20111;-40
2022/12/17 21:55:08;;;;;;;55.00;26.23;;;;;;;-1.15;79.00;102883.31;5070144;28;20028;-42
2022/12/17 21:57:33;;;;;;;61.83;28.05;;;;;;;-1.16;79.13;102884.94;5071239;28;20479;-42
2022/12/17 21:59:58;;;;;;;61.55;28.77;;;;;;;-1.20;78.98;102884.47;5074032;28;20047;-40
2022/12/17 22:02:24;;;;;;;65.13;28.13;;;;;;;-1.18;79.08;102888.94;5072970;28;20169;-40
2022/12/17 22:04:49;;;;;;;66.40;30.33;;;;;;;-1.14;79.03;102888.53;5069006;28;20073;-42
2022/12/17 22:07:14;;;;;;;66.95;30.33;;;;;;;-1.18;78.77;102898.13;5065080;28;20048;-41
2022/12/17 22:09:40;;;;;;;66.57;30.13;;;;;;;-1.17;78.63;102890.72;5078855;28;20021;-42
2022/12/17 22:14:49;;;;;;;65.35;29.40;;;;;;;-1.12;77.96;102904.72;5068318;28;20043;-42
2022/12/17 22:17:15;;;;;;;65.30;29.30;;;;;;;-1.15;78.27;102911.09;5070407;28;20032;-41
2022/12/17 22:19:40;;;;;;;66.05;30.17;;;;;;;-1.19;78.29;102909.84;5074503;28;20385;-40
2022/12/17 22:22:06;;;;;;;62.80;29.83;;;;;;;-1.22;78.26;102908.63;5077092;28;20107;-42
2022/12/17 22:24:31;;;;;;;63.88;29.23;;;;;;;-1.26;78.11;102912.47;5075040;28;20473;-40
2022/12/17 22:26:59;;;;;;;66.15;31.35;;;;;;;-1.28;78.30;102911.38;5076152;28;20028;-41
2022/12/17 22:34:55;;;;;;;67.07;29.77;;;;;;;-1.26;77.77;102914.97;5067908;28;20440;-40
2022/12/17 22:37:20;;;;;;;62.05;29.60;;;;;;;-1.31;77.83;102913.59;5073791;28;20028;-41
2022/12/17 22:39:45;;;;;;;63.22;29.90;;;;;;;-1.33;77.76;102899.91;5073645;28;20425;-40
2022/12/17 22:44:55;;;;;;;65.45;29.85;;;;;;;-1.33;77.63;102902.44;5070194;28;20150;-41
2022/12/17 22:47:20;;;;;;;64.30;28.88;;;;;;;-1.31;77.64;102898.44;5072742;28;20396;-41
2022/12/17 22:49:45;;;;;;;66.43;29.60;;;;;;;-1.27;77.66;102903.09;5073107;28;20078;-40
2022/12/17 22:52:11;;;;;;;65.60;29.15;;;;;;;-1.31;77.19;102906.00;5073791;28;20024;-40
2022/12/17 22:54:36;;;;;;;66.72;29.08;;;;;;;-1.32;77.18;102906.75;5072760;28;20131;-42
2022/12/17 22:57:01;;;;;;;62.72;29.40;;;;;;;-1.30;77.23;102905.28;5062079;28;20024;-41
2022/12/17 22:59:27;;;;;;;66.17;29.97;;;;;;;-1.34;77.01;102903.13;5072922;28;20044;-42
2022/12/17 23:01:52;;;;;;;66.60;29.67;;;;;;;-1.35;77.01;102894.69;5062882;28;20039;-41
2022/12/17 23:04:18;;;;;;;60.17;28.98;;;;;;;-1.38;76.90;102890.94;5070628;28;20115;-40
2022/12/17 23:06:44;;;;;;;63.65;29.25;;;;;;;-1.37;77.00;102897.78;5064938;28;20029;-42
2022/12/17 23:09:10;;;;;;;68.00;30.40;;;;;;;-1.42;77.08;102896.38;5063248;28;20082;-39
2022/12/17 23:11:36;;;;;;;71.03;32.42;;;;;;;-1.47;76.76;102892.47;5068698;28;20027;-42
2022/12/17 23:14:01;;;;;;;66.95;30.75;;;;;;;-1.40;77.04;102899.94;5073206;28;20035;-41
2022/12/17 23:16:27;;;;;;;64.63;30.20;;;;;;;-1.44;76.83;102885.22;5075390;28;20051;-41
2022/12/17 23:18:53;;;;;;;64.55;30.17;;;;;;;-1.44;76.57;102872.63;5064883;28;20033;-41
2022/12/17 23:21:24;;;;;;;63.13;29.65;;;;;;;-1.48;76.72;102873.91;5059367;28;20028;-41
2022/12/17 23:23:50;;;;;;;63.90;30.25;;;;;;;-1.52;76.59;102873.41;5064354;28;20029;-40
2022/12/17 23:26:19;;;;;;;65.32;31.30;;;;;;;-1.50;76.29;102879.53;5060401;28;20025;-43
2022/12/17 23:28:45;;;;;;;65.95;30.38;;;;;;;-1.56;76.10;102887.31;5062516;28;20070;-43
2022/12/17 23:31:13;;;;;;;63.00;29.33;;;;;;;-1.52;76.26;102883.50;5059966;28;20036;-42
2022/12/17 23:33:39;;;;;;;65.97;30.35;;;;;;;-1.55;76.19;102888.22;5070542;28;20032;-40
2022/12/17 23:36:26;;;;;;;65.20;28.27;;;;;;;-1.42;76.39;102888.81;5056837;28;20028;-43
2022/12/17 23:38:54;;;;;;;61.03;28.33;;;;;;;-1.48;75.89;102883.09;5063370;28;20067;-41
2022/12/17 23:41:22;;;;;;;56.40;27.60;;;;;;;-1.46;76.14;102880.00;5060035;28;20040;-40
2022/12/17 23:43:48;;;;;;;70.07;28.80;;;;;;;-1.51;75.74;102881.16;5065746;28;20123;-40
2022/12/17 23:46:15;;;;;;;63.20;29.20;;;;;;;-1.54;75.94;102875.75;5058890;28;20085;-40
2022/12/17 23:48:41;;;;;;;57.80;27.98;;;;;;;-1.54;75.77;102879.91;5065309;28;20110;-41
2022/12/17 23:51:09;;;;;;;58.33;28.05;;;;;;;-1.58;75.84;102875.25;5063488;28;20029;-41
2022/12/17 23:53:36;;;;;;;60.15;28.17;;;;;;;-1.55;75.64;102880.66;5064516;28;20036;-41
2022/12/17 23:56:10;;;;;;;62.83;28.55;;;;;;;-1.51;75.73;102893.78;5076073;28;20432;-41
2022/12/17 23:58:37;;;;;;;58.10;27.80;;;;;;;-1.54;75.67;102898.47;5070139;28;20033;-41
